Latest Weather Observations for Mount Read

IDT60801

Issued at 2:32 pm EST Thursday 28 July 2016 (issued every 30 minutes, with the page automatically refreshed every 10 minutes)

About weather observations | Map of weather stations | Latest weather observations for TAS | Other Formats
Station Details ID: 097085 Name: MOUNT READ Lat: -41.84 Lon: 145.54 Height: 1119.5 m
Data from the previous 72 hours. | See also: Recent months at Mount Read
Date/Time
EST
Temp
°C
App
Temp
°C
Dew
Point
°C
Rel
Hum
%
Delta-T
°C
Wind Press
QNH
hPa
Press
MSL
hPa
Rain since
9am
mm
Dir  Spd
km/h
Gust
km/h
Spd
kts
Gust
kts
28/02:30pm - - - - - W 46 69 25 37 1011.0 1013.1 8.2
28/02:03pm - - - - - W 46 65 25 35 1011.1 1013.3 7.8
28/02:00pm - - - - - W 52 69 28 37 1010.8 1012.9 7.8
28/01:41pm - - - - - W 44 69 24 37 1010.8 1012.9 7.6
28/01:30pm - - - - - W 41 56 22 30 1011.3 1013.5 7.4
28/01:00pm - - - - - W 54 76 29 41 1011.1 1013.3 7.2
28/12:38pm - - - - - W 52 70 28 38 1011.2 1013.4 6.8
28/12:30pm - - - - - W 52 70 28 38 1011.4 1013.6 6.8
28/12:11pm - - - - - W 52 72 28 39 1011.6 1013.8 6.4
28/12:00pm - - - - - W 56 70 30 38 1011.4 1013.6 5.8
28/11:30am - - - - - W 54 74 29 40 1011.8 1013.9 5.4
28/11:00am - - - - - W 61 82 33 44 1012.0 1014.2 5.2
28/10:30am - - - - - W 56 76 30 41 1012.0 1014.2 3.4
28/10:15am - - - - - W 46 67 25 36 1012.4 1014.6 3.0
28/10:00am - - - - - W 48 65 26 35 1012.2 1014.4 2.4
28/09:47am - - - - - W 56 74 30 40 1012.2 1014.4 1.4
28/09:35am - - - - - WNW 43 69 23 37 1012.2 1014.4 1.4
28/09:30am - - - - - WNW 33 57 18 31 1012.4 1014.6 1.4
28/09:02am - - - - - WNW 41 69 22 37 1012.1 1014.3 0.0
28/09:00am - - - - - WNW 41 57 22 31 1012.2 1014.4 68.2
28/08:40am - - - - - WNW 44 67 24 36 1011.8 1013.9 67.4
28/08:30am - - - - - W 43 57 23 31 1011.9 1014.1 67.0
28/08:00am - - - - - W 50 69 27 37 1011.3 1013.5 65.4
28/07:46am - - - - - W 46 69 25 37 1011.3 1013.5 65.0
28/07:44am - - - - - W 50 69 27 37 1011.4 1013.6 65.0
28/07:36am - - - - - W 46 74 25 40 1011.0 1013.1 64.6
28/07:30am - - - - - W 41 63 22 34 1011.4 1013.6 64.6
28/07:00am - - - - - W 52 76 28 41 1010.9 1013.0 62.8
28/06:30am - - - - - W 44 65 24 35 1010.9 1013.0 61.8
28/06:00am - - - - - W 46 69 25 37 1010.4 1012.6 59.4
28/05:30am - - - - - WNW 48 80 26 43 1010.1 1012.2 58.0
28/05:00am - - - - - WNW 48 67 26 36 1009.8 1011.9 56.2
28/04:30am - - - - - WNW 46 69 25 37 1009.6 1011.8 52.4
28/04:05am - - - - - WNW 44 65 24 35 1009.8 1011.9 51.2
28/04:00am - - - - - WNW 43 59 23 32 1010.1 1012.2 51.0
28/03:50am - - - - - WNW 46 65 25 35 1010.2 1012.3 50.8
28/03:42am - - - - - WNW 56 76 30 41 1009.6 1011.8 50.4
28/03:36am - - - - - WNW 46 76 25 41 1009.5 1011.6 49.6
28/03:30am - - - - - WNW 46 78 25 42 1010.0 1012.1 48.4
28/03:00am - - - - - WNW 46 70 25 38 1009.9 1012.0 46.8
28/02:30am - - - - - W 46 67 25 36 1010.5 1012.7 44.4
28/02:00am - - - - - W 46 69 25 37 1010.5 1012.7 43.8
28/01:30am - - - - - WNW 39 59 21 32 1010.5 1012.7 42.6
28/01:00am - - - - - WNW 35 56 19 30 1010.5 1012.7 41.2
28/12:33am - - - - - W 39 57 21 31 1010.1 1012.2 41.0
28/12:30am - - - - - W 39 50 21 27 1010.2 1012.3 41.0
28/12:00am - - - - - WNW 37 59 20 32 1010.3 1012.4 41.0
 
Date/Time
EST
Temp
°C
App
Temp
°C
Dew
Point
°C
Rel
Hum
%
Delta-T
°C
Wind Press
QNH
hPa
Press
MSL
hPa
Rain since
9am
mm
Dir  Spd
km/h
Gust
km/h
Spd
kts
Gust
kts
27/11:34pm - - - - - W 41 61 22 33 1010.3 1012.4 40.0
27/11:30pm - - - - - WNW 43 61 23 33 1010.1 1012.2 40.0
27/11:27pm - - - - - WNW 41 59 22 32 1010.1 1012.2 39.8
27/11:00pm - - - - - W 41 57 22 31 1010.0 1012.1 39.2
27/10:30pm - - - - - W 48 69 26 37 1009.4 1011.5 38.6
27/10:00pm - - - - - WSW 46 65 25 35 1009.2 1011.3 37.2
27/09:36pm - - - - - WSW 48 70 26 38 1008.9 1011.0 36.0
27/09:30pm - - - - - WSW 52 69 28 37 1008.8 1010.8 35.4
27/09:00pm - - - - - WSW 57 82 31 44 1008.1 1010.2 7.0
27/08:47pm - - - - - WSW 65 95 35 51 1007.9 1009.9 3.6
27/08:46pm - - - - - WSW 67 95 36 51 1007.9 1009.9 3.4
27/08:39pm - - - - - WSW 67 95 36 51 1007.5 1009.6 2.0
27/08:38pm - - - - - WSW 67 95 36 51 1007.0 1009.0 2.0
27/08:30pm - - - - - WSW 57 85 31 46 1006.9 1008.9 1.0
27/08:00pm - - - - - WSW 61 82 33 44 1006.9 1008.9 0.2
27/07:57pm - - - - - WSW 67 95 36 51 1006.6 1008.7 0.0
27/07:52pm - - - - - WSW 72 117 39 63 1006.9 1008.9 0.0
27/07:30pm - - - - - W 78 120 42 65 1004.8 1006.8 0.0
27/07:00pm - - - - - W 70 115 38 62 1005.1 1007.1 0.0
27/06:59pm - - - - - W 70 115 38 62 1005.0 1006.9 0.0
27/06:30pm - - - - - W 57 80 31 43 1005.4 1007.4 0.0
27/06:19pm - - - - - NW 43 91 23 49 1004.6 1006.6 0.0
27/06:18pm - - - - - NW 39 83 21 45 1005.0 1006.9 0.0
27/06:00pm - - - - - NNW 24 32 13 17 1005.0 1006.9 0.0
27/05:30pm - - - - - NNW 17 20 9 11 1005.4 1007.4 0.0
27/05:00pm - - - - - NNW 15 20 8 11 1005.2 1007.2 0.0
27/04:30pm - - - - - NNW 15 22 8 12 1004.6 1006.6 0.0
27/04:00pm - - - - - NNW 15 20 8 11 1004.2 1006.1 0.0
27/03:30pm - - - - - NNW 15 20 8 11 1005.0 1006.9 0.0
27/03:00pm - - - - - NNW 17 22 9 12 1004.5 1006.5 0.0
27/02:30pm - - - - - NNW 19 24 10 13 1004.6 1006.6 0.0
27/02:00pm - - - - - NNW 17 22 9 12 1004.4 1006.4 0.0
27/01:30pm - - - - - NNW 17 20 9 11 1004.7 1006.7 0.0
27/01:00pm - - - - - NNW 13 17 7 9 1005.1 1007.1 0.0
27/12:30pm - - - - - NNW 17 20 9 11 1004.7 1006.7 0.0
27/12:00pm - - - - - NNW 13 17 7 9 1004.7 1006.7 0.0
27/11:30am - - - - - NNW 11 15 6 8 1004.7 1006.7 0.0
27/11:00am - - - - - NNW 11 17 6 9 1004.6 1006.6 0.0
27/10:30am - - - - - NNW 11 15 6 8 1004.4 1006.4 0.0
27/10:00am - - - - - NNW 11 15 6 8 1004.0 1005.9 0.0
27/09:30am - - - - - NNW 11 15 6 8 1003.2 1005.1 0.0
27/09:00am - - - - - NNW 9 11 5 6 1003.1 1005.0 0.0
27/08:30am - - - - - NNW 13 17 7 9 1002.5 1004.4 0.0
27/08:00am - - - - - NNW 15 17 8 9 1001.8 1003.7 0.0
27/07:30am - - - - - NNW 13 15 7 8 1001.3 1003.2 0.0
27/07:00am - - - - - NNW 13 15 7 8 1000.6 1002.5 0.0
27/06:30am - - - - - NNW 15 19 8 10 999.7 1001.6 0.0
27/06:00am - - - - - NNW 15 19 8 10 999.3 1001.1 0.0
27/05:30am - - - - - NNW 15 19 8 10 998.7 1000.5 0.0
27/05:00am - - - - - NNW 17 19 9 10 998.2 1000.0 0.0
27/04:30am - - - - - NNW 15 19 8 10 997.4 999.1 0.0
27/04:00am - - - - - NNW 15 19 8 10 996.7 998.5 0.0
27/03:30am - - - - - NNW 20 26 11 14 995.3 997.0 0.0
27/03:00am - - - - - NNW 20 26 11 14 995.4 997.1 0.0
27/02:30am - - - - - NNW 19 24 10 13 995.0 996.7 0.0
27/02:00am - - - - - NNW 24 33 13 18 994.7 996.4 0.0
27/01:30am - - - - - NNW 19 26 10 14 994.4 996.1 0.0
27/01:00am - - - - - NNW 13 24 7 13 994.4 996.1 0.0
27/12:30am - - - - - NNW 9 13 5 7 994.7 996.4 0.0
27/12:00am - - - - - NNW 9 15 5 8 995.1 996.9 0.0
 
Date/Time
EST
Temp
°C
App
Temp
°C
Dew
Point
°C
Rel
Hum
%
Delta-T
°C
Wind Press
QNH
hPa
Press
MSL
hPa
Rain since
9am
mm
Dir  Spd
km/h
Gust
km/h
Spd
kts
Gust
kts
26/11:30pm - - - - - NNW 19 28 10 15 994.8 996.5 0.0
26/11:00pm - - - - - NNW 17 24 9 13 995.3 997.0 0.0
26/10:30pm - - - - - NNW 15 17 8 9 995.6 997.3 0.0
26/10:00pm - - - - - NNW 19 24 10 13 995.7 997.4 0.0
26/09:30pm - - - - - NNW 17 24 9 13 995.7 997.4 0.0
26/09:00pm - - - - - NNW 19 22 10 12 995.9 997.7 0.0
26/08:30pm - - - - - NNW 13 20 7 11 996.4 998.1 0.0
26/08:00pm - - - - - NNW 20 28 11 15 996.6 998.3 0.0
26/07:30pm - - - - - NNW 19 24 10 13 996.7 998.5 0.0
26/07:00pm - - - - - NNW 15 19 8 10 996.8 998.6 0.0
26/06:30pm - - - - - NNW 19 28 10 15 997.0 998.8 0.0
26/06:00pm - - - - - NNW 15 20 8 11 997.4 999.1 0.0
26/05:30pm - - - - - NNW 19 26 10 14 997.0 998.8 0.0
26/05:00pm - - - - - NNW 19 32 10 17 997.4 999.1 0.0
26/04:30pm - - - - - NNW 20 32 11 17 997.4 999.1 0.0
26/04:00pm - - - - - NNW 22 32 12 17 997.5 999.3 0.0
26/03:30pm - - - - - NNW 26 48 14 26 997.8 999.6 0.0
26/03:22pm - - - - - NNW 28 48 15 26 997.3 999.0 0.0
26/03:00pm - - - - - NNW 22 39 12 21 997.6 999.4 0.0
26/02:30pm - - - - - NNW 26 44 14 24 997.7 999.5 0.0
26/02:00pm - - - - - NNW 24 39 13 21 997.9 999.7 0.0
26/01:36pm - - - - - NNW 28 48 15 26 998.2 1000.0 0.0
26/01:30pm - - - - - NNW 32 46 17 25 998.3 1000.1 0.0
26/01:17pm - - - - - NNW 28 50 15 27 997.8 999.6 0.0
26/01:00pm - - - - - NNW 20 43 11 23 998.2 1000.0 0.0
26/12:30pm - - - - - NNW 20 35 11 19 998.6 1000.4 0.0
26/12:00pm - - - - - NNW 30 43 16 23 998.6 1000.4 0.0
26/11:30am - - - - - NNW 28 39 15 21 998.6 1000.4 0.0
26/11:00am - - - - - NNW 26 37 14 20 998.9 1000.8 0.0
26/10:30am - - - - - NNW 26 35 14 19 998.6 1000.4 0.0
26/10:08am - - - - - NNW 28 50 15 27 998.3 1000.1 0.0
26/10:00am - - - - - NNW 24 32 13 17 998.6 1000.4 0.0
26/09:30am - - - - - NNW 30 44 16 24 998.3 1000.1 0.0
26/09:00am - - - - - NNW 26 35 14 19 998.4 1000.2 11.4
26/08:30am - - - - - NNW 22 33 12 18 998.4 1000.2 11.4
26/08:00am - - - - - NNW 39 52 21 28 997.5 999.3 11.4
26/07:30am - - - - - NNW 28 35 15 19 996.7 998.5 11.4
26/07:00am - - - - - NNW 33 48 18 26 996.1 997.9 11.4
26/06:30am - - - - - NNW 35 50 19 27 995.4 997.1 11.4
26/06:00am - - - - - NNW 39 50 21 27 994.9 996.6 11.4
26/05:30am - - - - - NNW 33 46 18 25 994.1 995.8 11.4
26/05:16am - - - - - NNW 32 52 17 28 993.5 995.1 11.4
26/05:00am - - - - - NNW 32 41 17 22 993.7 995.4 11.4
26/04:30am - - - - - NNW 37 56 20 30 992.8 994.4 11.4
26/04:00am - - - - - NNW 32 44 17 24 992.4 994.0 11.4
26/03:30am - - - - - NNW 41 52 22 28 992.0 993.6 11.4
26/03:12am - - - - - NNW 33 59 18 32 991.6 993.2 11.4
26/03:00am - - - - - NNW 33 50 18 27 992.0 993.6 11.4
26/02:53am - - - - - NNW 39 59 21 32 992.0 993.6 11.4
26/02:30am - - - - - NNW 39 54 21 29 991.6 993.2 11.4
26/02:00am - - - - - NNW 43 67 23 36 991.4 993.0 11.4
26/01:30am - - - - - NNW 41 61 22 33 990.8 992.4 11.4
26/01:20am - - - - - NNW 33 54 18 29 991.0 992.6 11.4
26/01:00am - - - - - NNW 35 48 19 26 990.8 992.4 11.4
26/12:30am - - - - - NNW 46 70 25 38 990.6 992.2 11.4
26/12:17am - - - - - NNW 37 56 20 30 990.3 991.9 11.4
26/12:00am - - - - - NNW 35 46 19 25 990.6 992.2 11.4
 
Date/Time
EST
Temp
°C
App
Temp
°C
Dew
Point
°C
Rel
Hum
%
Delta-T
°C
Wind Press
QNH
hPa
Press
MSL
hPa
Rain since
9am
mm
Dir  Spd
km/h
Gust
km/h
Spd
kts
Gust
kts
25/11:30pm - - - - - NNW 33 54 18 29 989.5 991.0 11.4
25/11:01pm - - - - - NNW 30 50 16 27 989.1 990.7 11.4
25/11:00pm - - - - - NNW 28 50 15 27 989.5 991.0 11.4
25/10:30pm - - - - - NNW 43 70 23 38 988.6 990.1 11.4
25/10:05pm - - - - - NNW 37 56 20 30 988.9 990.4 11.4
25/10:00pm - - - - - NNW 37 54 20 29 989.0 990.6 11.4
25/09:30pm - - - - - NNW 32 50 17 27 988.7 990.2 11.4
25/09:00pm - - - - - NNW 39 65 21 35 988.8 990.3 11.4
25/08:45pm - - - - - NNW 37 61 20 33 988.2 989.7 11.4
25/08:30pm - - - - - NNW 37 52 20 28 988.2 989.7 11.4
25/08:00pm - - - - - NNW 46 69 25 37 988.2 989.7 11.4
25/07:30pm - - - - - NNW 41 65 22 35 987.3 988.8 11.4
25/07:00pm - - - - - NNW 37 83 20 45 987.3 988.8 11.4
25/06:52pm - - - - - NNW 43 83 23 45 986.3 987.8 11.4
25/06:43pm - - - - - NNW 33 54 18 29 986.7 988.1 11.4
25/06:30pm - - - - - NNW 43 57 23 31 986.7 988.1 11.4
25/06:00pm - - - - - N 52 78 28 42 985.7 987.1 11.4
25/05:30pm - - - - - N 59 87 32 47 986.0 987.5 11.0
25/05:00pm - - - - - N 50 72 27 39 987.9 989.4 10.4
25/04:31pm - - - - - N 50 72 27 39 988.7 990.2 10.0
25/04:30pm - - - - - N 48 67 26 36 988.8 990.3 10.0
25/04:20pm - - - - - N 44 63 24 34 989.1 990.7 10.0
25/04:00pm - - - - - N 39 52 21 28 989.9 991.5 9.8
25/03:43pm - - - - - N 37 56 20 30 990.7 992.3 9.8
25/03:30pm - - - - - N 37 52 20 28 991.2 992.8 9.8
25/03:04pm - - - - - N 32 50 17 27 992.0 993.6 9.8
25/03:00pm - - - - - N 32 43 17 23 992.1 993.8 9.6

Other Formats:

Comma delimited format used in spreadsheet applications
http://www.bom.gov.au/fwo/IDT60801/IDT60801.95952.axf

JavaScript Object Notation format (JSON) in row-major order
http://www.bom.gov.au/fwo/IDT60801/IDT60801.95952.json